Time;durP1;ratioP1;P1;durP2;ratioP2;P2;SDS_P1;SDS_P2;PMS_P1;PMS_P2;Temp;Humidity;BMP_temperature;BMP_pressure;BME280_temperature;BME280_humidity;BME280_pressure;Samples;Min_cycle;Max_cycle;Signal;HPM_P1;HPM_P2
2023/07/03 00:00:16;;;;;;;16.95;3.03;;;15.40;99.20;;;;;;5036157;28;20114;-60
2023/07/03 00:02:45;;;;;;;16.45;4.88;;;15.40;99.90;;;;;;5037943;28;20056;-59
2023/07/03 00:05:12;;;;;;;22.88;4.00;;;15.40;99.90;;;;;;5049142;28;20221;-60
2023/07/03 00:07:40;;;;;;;14.77;2.78;;;15.40;99.90;;;;;;5041146;28;20048;-59
2023/07/03 00:10:07;;;;;;;11.45;2.78;;;15.30;99.90;;;;;;5029205;28;20049;-58
2023/07/03 00:12:34;;;;;;;15.75;3.25;;;15.40;99.90;;;;;;5035374;28;20048;-58
2023/07/03 00:15:01;;;;;;;14.40;3.45;;;15.40;99.90;;;;;;5039936;28;20053;-59
2023/07/03 00:17:28;;;;;;;15.18;2.63;;;15.40;99.90;;;;;;5035190;28;20083;-58
2023/07/03 00:19:55;;;;;;;16.15;3.58;;;15.40;99.90;;;;;;5040297;28;20077;-59
2023/07/03 00:22:22;;;;;;;22.45;3.72;;;15.40;99.90;;;;;;5033723;28;20651;-58
2023/07/03 00:24:49;;;;;;;12.68;2.80;;;15.40;99.90;;;;;;5043464;28;20046;-58
2023/07/03 00:27:16;;;;;;;16.75;3.60;;;15.40;99.90;;;;;;5032388;28;20048;-59
2023/07/03 00:29:43;;;;;;;12.43;2.67;;;15.40;99.90;;;;;;5041508;28;20774;-58
2023/07/03 00:32:11;;;;;;;21.75;3.78;;;15.50;99.90;;;;;;5030178;28;20514;-58
2023/07/03 00:34:38;;;;;;;14.40;3.25;;;15.40;99.90;;;;;;5043976;28;20045;-58
2023/07/03 00:37:05;;;;;;;15.23;3.75;;;15.40;99.90;;;;;;5031286;28;20709;-59
2023/07/03 00:39:32;;;;;;;20.63;3.55;;;15.30;99.90;;;;;;5033044;28;20041;-58
2023/07/03 00:41:58;;;;;;;11.68;3.47;;;15.30;99.90;;;;;;5031471;28;20493;-58
2023/07/03 00:44:25;;;;;;;18.10;3.60;;;15.30;99.90;;;;;;5038785;28;20060;-59
2023/07/03 00:46:52;;;;;;;20.27;3.83;;;15.30;99.90;;;;;;5033700;28;20051;-59
2023/07/03 00:49:20;;;;;;;20.95;3.67;;;15.30;99.90;;;;;;5038919;28;20040;-57
2023/07/03 00:51:50;;;;;;;17.40;2.75;;;15.30;99.90;;;;;;5030976;28;20103;-59
2023/07/03 00:54:17;;;;;;;22.38;3.83;;;15.20;99.90;;;;;;5005686;28;20075;-59
2023/07/03 00:56:44;;;;;;;17.60;3.10;;;15.20;99.90;;;;;;5038958;28;20052;-62
2023/07/03 00:59:11;;;;;;;23.05;3.75;;;15.30;99.90;;;;;;5039969;28;20044;-58
2023/07/03 01:01:50;;;;;;;18.80;3.45;;;15.30;99.90;;;;;;4686757;28;10000439;-58
2023/07/03 01:04:20;;;;;;;16.48;2.60;;;15.20;99.90;;;;;;5006497;28;20052;-60
2023/07/03 01:06:54;;;;;;;12.15;2.88;;;15.20;99.90;;;;;;5036615;28;20049;-59
2023/07/03 01:09:21;;;;;;;18.90;4.07;;;15.30;99.90;;;;;;5008157;28;20053;-59
2023/07/03 01:11:48;;;;;;;21.23;3.72;;;15.30;99.90;;;;;;5023119;28;20056;-59
2023/07/03 01:14:17;;;;;;;18.65;4.03;;;15.30;99.90;;;;;;5028142;28;20045;-59
2023/07/03 01:16:45;;;;;;;25.13;4.13;;;15.30;99.90;;;;;;5008068;28;20053;-58
2023/07/03 01:19:18;;;;;;;23.10;3.15;;;15.30;99.90;;;;;;5023606;28;20067;-59
2023/07/03 01:22:18;;;;;;;23.40;3.80;;;15.30;99.90;;;;;;5002611;28;20120;-59
2023/07/03 01:24:47;;;;;;;14.48;3.25;;;15.20;99.90;;;;;;4962337;28;20049;-59
2023/07/03 01:27:19;;;;;;;20.13;3.30;;;15.20;99.90;;;;;;5027431;28;20052;-60
2023/07/03 01:29:45;;;;;;;15.48;3.10;;;15.20;99.90;;;;;;5007873;28;20077;-59
2023/07/03 01:32:13;;;;;;;17.55;3.53;;;15.20;99.90;;;;;;5005424;28;20053;-59
2023/07/03 01:34:45;;;;;;;20.60;4.28;;;15.20;99.90;;;;;;5018521;28;20079;-58
2023/07/03 01:37:13;;;;;;;24.50;4.40;;;15.20;99.90;;;;;;5043435;28;20084;-59
2023/07/03 01:39:43;;;;;;;25.42;3.85;;;15.10;99.90;;;;;;5007257;28;20045;-58
2023/07/03 01:42:10;;;;;;;22.35;3.55;;;15.10;99.90;;;;;;5028694;28;20064;-59
2023/07/03 01:44:37;;;;;;;30.70;4.30;;;15.10;99.90;;;;;;5036203;28;20045;-59
2023/07/03 01:47:06;;;;;;;22.27;3.53;;;15.10;99.90;;;;;;5042829;28;20056;-61
2023/07/03 01:49:33;;;;;;;13.60;3.05;;;15.00;99.90;;;;;;5037025;28;20037;-59
2023/07/03 01:52:27;;;;;;;14.82;2.95;;;15.00;99.90;;;;;;5046137;28;20044;-59
2023/07/03 01:54:55;;;;;;;17.83;4.20;;;15.00;99.90;;;;;;5021693;28;20140;-59
2023/07/03 01:57:46;;;;;;;20.88;3.50;;;14.90;99.90;;;;;;5048751;28;20756;-59
2023/07/03 02:00:16;;;;;;;17.65;2.85;;;14.80;99.90;;;;;;5039274;28;20045;-59
2023/07/03 02:02:46;;;;;;;14.40;2.95;;;14.70;99.90;;;;;;5046807;28;20044;-59
2023/07/03 02:05:18;;;;;;;15.25;3.28;;;14.70;99.90;;;;;;5031402;28;20045;-60
2023/07/03 02:07:45;;;;;;;21.27;2.95;;;14.60;99.90;;;;;;5019929;28;20068;-59
2023/07/03 02:10:12;;;;;;;18.88;4.00;;;14.70;99.90;;;;;;5008311;28;20614;-59
2023/07/03 02:12:41;;;;;;;19.15;2.80;;;14.60;99.90;;;;;;5042091;28;20492;-59
2023/07/03 02:15:08;;;;;;;16.02;3.03;;;14.60;99.90;;;;;;5048205;28;20051;-59
2023/07/03 02:17:36;;;;;;;23.85;3.35;;;14.60;99.90;;;;;;5051539;28;20059;-58
2023/07/03 02:20:05;;;;;;;22.83;3.80;;;14.60;99.90;;;;;;5053703;28;20092;-59
2023/07/03 02:22:31;;;;;;;17.58;2.83;;;14.60;99.90;;;;;;5043274;28;20045;-59
2023/07/03 02:24:58;;;;;;;19.83;3.35;;;14.60;99.90;;;;;;5046525;28;20103;-60
2023/07/03 02:27:25;;;;;;;23.73;3.53;;;14.60;99.90;;;;;;5043586;28;20092;-61
2023/07/03 02:29:52;;;;;;;19.95;3.40;;;14.50;99.90;;;;;;5049564;28;20049;-59
2023/07/03 02:32:19;;;;;;;17.00;3.47;;;14.50;99.90;;;;;;5044273;28;20061;-58
2023/07/03 02:34:46;;;;;;;15.27;2.92;;;14.40;99.90;;;;;;5052735;28;20153;-59
2023/07/03 02:37:13;;;;;;;14.85;3.28;;;14.40;99.90;;;;;;5028693;28;20423;-58
2023/07/03 02:39:40;;;;;;;16.83;3.60;;;14.40;99.90;;;;;;5038217;28;20148;-58
2023/07/03 02:42:07;;;;;;;16.90;3.42;;;14.30;99.90;;;;;;5038817;28;20049;-58
2023/07/03 02:44:34;;;;;;;18.55;3.92;;;14.40;99.90;;;;;;5048876;28;20123;-58
2023/07/03 02:47:02;;;;;;;15.25;2.92;;;14.30;99.90;;;;;;5048015;28;20137;-58
2023/07/03 02:49:29;;;;;;;19.17;3.67;;;14.30;99.90;;;;;;5045881;28;20107;-60
2023/07/03 02:51:56;;;;;;;16.02;2.90;;;14.30;99.90;;;;;;5035584;28;20099;-59
2023/07/03 02:54:23;;;;;;;21.58;3.88;;;14.30;99.90;;;;;;5042533;28;20063;-60
2023/07/03 02:56:50;;;;;;;16.02;3.20;;;14.30;99.90;;;;;;5031713;28;20049;-58
2023/07/03 02:59:17;;;;;;;23.13;3.05;;;14.20;99.90;;;;;;5038505;28;20463;-59
2023/07/03 03:01:43;;;;;;;19.02;3.28;;;14.20;99.90;;;;;;5033858;28;20041;-58
2023/07/03 03:04:10;;;;;;;22.15;4.68;;;14.10;99.90;;;;;;5041890;28;20071;-58
2023/07/03 03:06:38;;;;;;;19.10;3.22;;;14.10;99.90;;;;;;5046010;28;20049;-59
2023/07/03 03:09:05;;;;;;;13.90;2.70;;;14.10;99.90;;;;;;5039143;28;20052;-59
2023/07/03 03:11:32;;;;;;;18.15;4.10;;;14.10;99.90;;;;;;5044004;28;20541;-59
2023/07/03 03:13:59;;;;;;;10.63;2.92;;;14.20;99.90;;;;;;5041146;28;20450;-59
2023/07/03 03:16:26;;;;;;;15.35;3.15;;;14.10;99.90;;;;;;5040769;28;20059;-55
2023/07/03 03:18:53;;;;;;;15.40;3.40;;;14.10;99.90;;;;;;5036469;28;20037;-60
2023/07/03 03:21:20;;;;;;;19.40;3.40;;;14.10;99.90;;;;;;5042860;28;20053;-58
2023/07/03 03:23:47;;;;;;;15.82;3.53;;;14.10;99.90;;;;;;5042921;28;20566;-57
2023/07/03 03:26:13;;;;;;;20.38;3.10;;;14.00;99.90;;;;;;5042631;28;20088;-59
2023/07/03 03:28:40;;;;;;;23.60;3.90;;;14.00;99.90;;;;;;5035180;28;20080;-59
2023/07/03 03:31:07;;;;;;;14.10;4.25;;;14.00;99.90;;;;;;5042008;28;20050;-59
2023/07/03 03:33:34;;;;;;;14.77;2.58;;;13.90;99.90;;;;;;5034663;28;20045;-58
2023/07/03 03:36:00;;;;;;;13.88;2.85;;;13.90;99.90;;;;;;5041936;28;20053;-60
2023/07/03 03:38:27;;;;;;;18.67;4.30;;;14.00;99.90;;;;;;5031341;28;20095;-59
2023/07/03 03:40:55;;;;;;;16.58;3.03;;;14.00;99.90;;;;;;5037228;28;20049;-59
2023/07/03 03:43:22;;;;;;;16.35;2.80;;;14.00;99.90;;;;;;5038568;28;20534;-59
2023/07/03 03:45:56;;;;;;;20.38;2.90;;;13.90;99.90;;;;;;5043201;28;20530;-59
2023/07/03 03:48:23;;;;;;;15.77;2.70;;;13.90;99.90;;;;;;5044864;28;20072;-59
2023/07/03 03:50:50;;;;;;;23.70;5.10;;;13.90;99.90;;;;;;5040494;28;20049;-59
2023/07/03 03:53:17;;;;;;;17.20;3.17;;;13.90;99.90;;;;;;5044983;28;20052;-58
2023/07/03 03:55:47;;;;;;;12.82;2.90;;;13.80;99.90;;;;;;5038324;28;20091;-58
2023/07/03 03:58:15;;;;;;;23.00;3.50;;;13.80;99.90;;;;;;5043864;28;20094;-58
2023/07/03 04:00:43;;;;;;;19.60;3.88;;;13.80;99.90;;;;;;5041781;28;20040;-58
2023/07/03 04:03:10;;;;;;;18.48;3.00;;;13.80;99.90;;;;;;5036786;28;20563;-58
2023/07/03 04:05:37;;;;;;;18.10;3.08;;;13.90;99.90;;;;;;5037798;28;20037;-59
2023/07/03 04:08:04;;;;;;;16.40;3.67;;;13.90;99.90;;;;;;5049091;28;20059;-59
2023/07/03 04:10:31;;;;;;;21.60;3.83;;;13.90;99.90;;;;;;5039301;28;20050;-59
2023/07/03 04:12:58;;;;;;;19.00;3.88;;;13.90;99.90;;;;;;5048562;28;20041;-59
2023/07/03 04:15:25;;;;;;;23.50;3.88;;;13.90;99.90;;;;;;5042794;28;20083;-59
2023/07/03 04:17:51;;;;;;;13.45;2.67;;;13.90;99.90;;;;;;5038587;28;20053;-59
2023/07/03 04:20:18;;;;;;;12.18;3.28;;;13.90;99.90;;;;;;5034963;28;20102;-59
2023/07/03 04:22:45;;;;;;;23.15;3.75;;;13.90;99.90;;;;;;5041523;28;20033;-58
2023/07/03 04:25:12;;;;;;;16.85;3.05;;;13.90;99.90;;;;;;5033734;28;20130;-59
2023/07/03 04:27:39;;;;;;;15.10;2.97;;;13.90;99.90;;;;;;5034238;28;20058;-59
2023/07/03 04:30:06;;;;;;;20.67;3.42;;;13.90;99.90;;;;;;5046369;28;20037;-59
2023/07/03 04:32:33;;;;;;;10.32;2.53;;;13.90;99.90;;;;;;5037123;28;20045;-59
2023/07/03 04:35:04;;;;;;;17.13;3.42;;;13.90;99.90;;;;;;5046037;28;20044;-58
2023/07/03 04:37:30;;;;;;;17.73;4.07;;;13.90;99.90;;;;;;5034527;28;20108;-57
2023/07/03 04:39:57;;;;;;;24.35;4.28;;;13.90;99.90;;;;;;5044906;28;20056;-59
2023/07/03 04:42:24;;;;;;;18.15;3.30;;;13.90;99.90;;;;;;5039648;28;20048;-57
2023/07/03 04:44:51;;;;;;;9.30;2.47;;;13.90;99.90;;;;;;5031025;28;20059;-58
2023/07/03 04:47:18;;;;;;;24.98;4.90;;;13.90;99.90;;;;;;5039446;28;20041;-58
2023/07/03 04:49:45;;;;;;;18.08;3.28;;;13.90;99.90;;;;;;5035419;28;20046;-59
2023/07/03 04:52:16;;;;;;;16.95;2.92;;;14.00;99.90;;;;;;5036434;28;20492;-59
2023/07/03 04:54:43;;;;;;;15.30;2.53;;;14.00;99.90;;;;;;5037178;28;20447;-60
2023/07/03 04:57:10;;;;;;;23.63;5.95;;;14.00;99.90;;;;;;5032245;28;20046;-58
2023/07/03 04:59:37;;;;;;;19.20;4.30;;;14.00;99.90;;;;;;5046157;28;20049;-58
2023/07/03 05:02:04;;;;;;;15.60;2.88;;;14.10;99.90;;;;;;5035513;28;20373;-58
2023/07/03 05:04:31;;;;;;;16.42;4.10;;;14.20;99.90;;;;;;5042422;28;20053;-61
2023/07/03 05:06:58;;;;;;;14.73;3.20;;;14.20;99.90;;;;;;5041406;28;20045;-58
2023/07/03 05:09:25;;;;;;;14.55;3.13;;;14.30;99.90;;;;;;5033955;28;20048;-59
2023/07/03 05:11:53;;;;;;;11.43;3.22;;;14.30;99.90;;;;;;5040356;28;20121;-59
2023/07/03 05:14:19;;;;;;;15.70;3.40;;;14.30;99.90;;;;;;5033649;28;20049;-57
2023/07/03 05:16:46;;;;;;;14.23;3.05;;;14.40;99.90;;;;;;5043403;28;20094;-58
2023/07/03 05:19:13;;;;;;;25.02;4.30;;;14.40;99.90;;;;;;5037778;28;20128;-59
2023/07/03 05:21:40;;;;;;;20.35;3.50;;;14.50;99.90;;;;;;5035823;28;20132;-58
2023/07/03 05:24:07;;;;;;;16.35;3.05;;;14.60;99.90;;;;;;5036459;28;20044;-58
2023/07/03 05:26:34;;;;;;;10.68;3.00;;;14.60;99.90;;;;;;5036424;28;20052;-59
2023/07/03 05:29:00;;;;;;;12.07;3.13;;;14.70;99.90;;;;;;5037875;28;20522;-60
2023/07/03 05:31:27;;;;;;;14.77;2.95;;;14.60;99.90;;;;;;5040792;28;20045;-60
2023/07/03 05:33:54;;;;;;;19.13;3.42;;;14.60;99.90;;;;;;5035905;28;20492;-60
2023/07/03 05:36:21;;;;;;;18.77;2.60;;;14.60;99.90;;;;;;5041280;28;20053;-60
2023/07/03 05:38:48;;;;;;;12.95;3.55;;;14.60;99.90;;;;;;5036174;28;20812;-60
2023/07/03 05:41:15;;;;;;;17.15;3.10;;;14.60;99.90;;;;;;5036569;28;20049;-58
2023/07/03 05:43:41;;;;;;;14.88;3.75;;;14.70;99.90;;;;;;5034097;28;20049;-59
2023/07/03 05:46:08;;;;;;;19.58;3.15;;;14.70;99.90;;;;;;5043686;28;20111;-59
2023/07/03 05:48:35;;;;;;;21.08;3.38;;;14.70;99.90;;;;;;5039590;28;20135;-59
2023/07/03 05:51:02;;;;;;;16.27;2.90;;;14.70;99.90;;;;;;5045825;28;20040;-59
2023/07/03 05:53:28;;;;;;;14.90;3.10;;;14.70;99.90;;;;;;5027906;28;20049;-59
2023/07/03 05:55:56;;;;;;;21.60;2.53;;;14.70;99.90;;;;;;5038483;28;20049;-58
2023/07/03 05:58:23;;;;;;;19.25;4.78;;;14.60;99.90;;;;;;5031306;28;20060;-59
2023/07/03 06:00:50;;;;;;;16.13;3.00;;;14.70;99.90;;;;;;5020892;28;20096;-59
2023/07/03 06:03:17;;;;;;;12.07;2.67;;;14.70;99.90;;;;;;5038834;28;20301;-59
2023/07/03 06:05:47;;;;;;;11.55;2.83;;;14.70;99.90;;;;;;5044785;28;20437;-59
2023/07/03 06:08:15;;;;;;;13.15;3.35;;;14.70;99.90;;;;;;5028070;28;20411;-59
2023/07/03 06:10:41;;;;;;;18.33;2.67;;;14.70;99.90;;;;;;5035775;28;20412;-60
2023/07/03 06:13:08;;;;;;;27.70;2.83;;;14.70;99.90;;;;;;5032968;28;20442;-61
2023/07/03 06:15:35;;;;;;;12.73;2.80;;;14.80;99.90;;;;;;5039073;28;20071;-59
2023/07/03 06:18:02;;;;;;;21.67;3.20;;;14.80;99.90;;;;;;5043744;28;20049;-60
2023/07/03 06:20:30;;;;;;;14.73;2.70;;;14.80;99.90;;;;;;5035650;28;20052;-59
2023/07/03 06:22:56;;;;;;;20.75;3.47;;;14.70;99.90;;;;;;5040147;28;20095;-59
2023/07/03 06:25:23;;;;;;;15.95;3.05;;;14.80;99.90;;;;;;5039785;28;20049;-59
2023/07/03 06:27:51;;;;;;;19.60;3.42;;;14.80;99.90;;;;;;5046752;28;20045;-59
2023/07/03 06:30:18;;;;;;;16.23;3.00;;;14.90;99.90;;;;;;5039766;28;20069;-59
2023/07/03 06:32:45;;;;;;;8.73;2.35;;;15.00;99.90;;;;;;5039506;28;20500;-59
2023/07/03 06:35:13;;;;;;;16.15;3.15;;;15.10;99.90;;;;;;5039083;28;20068;-55
2023/07/03 06:37:40;;;;;;;14.75;2.75;;;15.10;99.90;;;;;;5046249;28;20052;-55
2023/07/03 06:40:10;;;;;;;12.73;2.70;;;15.20;99.90;;;;;;5043041;28;20038;-57
2023/07/03 06:42:37;;;;;;;15.50;2.70;;;15.30;99.90;;;;;;5035622;28;20079;-57
2023/07/03 06:45:05;;;;;;;25.15;2.80;;;15.30;99.90;;;;;;5044899;28;20411;-57
2023/07/03 06:47:32;;;;;;;17.55;2.75;;;15.20;99.90;;;;;;5037358;28;20226;-56
2023/07/03 06:49:59;;;;;;;14.18;1.90;;;15.30;99.90;;;;;;5040843;28;20574;-56
2023/07/03 06:52:25;;;;;;;11.32;2.17;;;15.30;99.90;;;;;;5034490;28;20063;-57
2023/07/03 06:54:52;;;;;;;18.65;2.53;;;15.40;99.90;;;;;;5032914;28;20415;-56
2023/07/03 06:57:19;;;;;;;10.07;2.60;;;15.40;99.90;;;;;;5041161;28;20057;-56
2023/07/03 06:59:46;;;;;;;10.63;2.55;;;15.50;99.90;;;;;;5032142;28;20060;-54
2023/07/03 07:02:13;;;;;;;14.15;2.15;;;15.60;99.90;;;;;;5036919;28;20052;-55
2023/07/03 07:04:41;;;;;;;8.18;2.20;;;15.70;99.90;;;;;;5044340;28;20049;-56
2023/07/03 07:07:08;;;;;;;11.32;2.03;;;15.70;99.90;;;;;;5043321;28;20045;-57
2023/07/03 07:09:35;;;;;;;10.35;2.28;;;15.70;99.90;;;;;;5049061;28;20044;-55
2023/07/03 07:12:02;;;;;;;14.68;2.60;;;15.80;99.90;;;;;;5038711;28;20044;-56
2023/07/03 07:14:29;;;;;;;11.60;1.92;;;15.80;99.90;;;;;;5044569;28;20053;-56
2023/07/03 07:16:57;;;;;;;12.35;2.60;;;15.90;99.90;;;;;;5039999;28;20052;-57
2023/07/03 07:19:24;;;;;;;8.40;2.58;;;16.00;99.90;;;;;;5048736;28;20136;-57
2023/07/03 07:21:51;;;;;;;9.00;1.77;;;16.00;99.90;;;;;;5041297;28;20049;-56
2023/07/03 07:24:20;;;;;;;7.55;1.50;;;16.00;99.90;;;;;;5035960;28;20053;-57
2023/07/03 07:26:47;;;;;;;8.52;1.77;;;16.10;99.90;;;;;;5013827;28;20160;-55
2023/07/03 07:29:14;;;;;;;11.10;2.33;;;16.10;99.90;;;;;;5040001;28;20104;-57
2023/07/03 07:31:41;;;;;;;7.75;1.63;;;16.10;99.90;;;;;;5021264;28;20041;-58
2023/07/03 07:34:09;;;;;;;12.68;2.08;;;16.10;99.90;;;;;;5040945;28;20053;-58
2023/07/03 07:36:37;;;;;;;6.93;2.45;;;16.20;99.90;;;;;;5032590;28;20439;-58
2023/07/03 07:39:04;;;;;;;6.72;1.50;;;16.30;99.90;;;;;;5030603;28;20045;-56
2023/07/03 07:41:31;;;;;;;11.13;1.77;;;16.30;99.90;;;;;;5046842;28;20092;-57
2023/07/03 07:43:58;;;;;;;9.27;2.45;;;16.30;99.90;;;;;;5024289;28;20487;-57
2023/07/03 07:46:28;;;;;;;8.95;1.65;;;16.50;99.90;;;;;;5031432;28;20041;-59
2023/07/03 07:48:59;;;;;;;7.00;2.80;;;16.50;99.90;;;;;;5042780;28;20122;-59
2023/07/03 07:51:26;;;;;;;7.63;1.45;;;16.50;99.90;;;;;;5030103;28;20041;-58
2023/07/03 07:53:53;;;;;;;4.90;1.00;;;16.60;99.90;;;;;;5036240;28;20056;-57
2023/07/03 07:56:20;;;;;;;6.32;1.70;;;16.50;99.90;;;;;;5043886;28;20159;-55
2023/07/03 07:58:48;;;;;;;8.35;1.70;;;16.60;99.90;;;;;;4699038;28;10000490;-56
2023/07/03 08:01:15;;;;;;;5.82;1.33;;;16.60;99.90;;;;;;5026171;28;20102;-58
2023/07/03 08:03:42;;;;;;;8.80;1.42;;;16.80;99.90;;;;;;5035131;28;20053;-58
2023/07/03 08:06:09;;;;;;;7.03;1.50;;;16.80;99.90;;;;;;5034275;28;20076;-57
2023/07/03 08:08:36;;;;;;;12.23;2.13;;;16.80;99.90;;;;;;5036643;28;20055;-58
2023/07/03 08:11:05;;;;;;;19.00;2.92;;;16.80;99.90;;;;;;5038473;28;20272;-57
2023/07/03 08:13:32;;;;;;;40.17;4.78;;;16.90;99.90;;;;;;5019711;28;20046;-58
2023/07/03 08:15:59;;;;;;;3.20;1.10;;;17.00;99.90;;;;;;5026044;28;20045;-58
2023/07/03 08:18:26;;;;;;;11.40;1.70;;;17.10;99.90;;;;;;5034296;28;20061;-59
2023/07/03 08:20:53;;;;;;;6.18;1.63;;;17.20;99.90;;;;;;5036098;28;20111;-56
2023/07/03 08:23:20;;;;;;;14.55;1.90;;;17.30;99.40;;;;;;5029239;28;20057;-56
2023/07/03 08:25:51;;;;;;;10.60;1.90;;;17.40;99.50;;;;;;5037680;28;20124;-57
2023/07/03 08:28:18;;;;;;;14.82;2.80;;;17.50;99.00;;;;;;5036472;28;20059;-56
2023/07/03 08:30:45;;;;;;;12.15;1.77;;;17.60;97.80;;;;;;5039134;28;20045;-57
2023/07/03 08:33:13;;;;;;;21.25;2.40;;;17.50;96.90;;;;;;5039180;28;20395;-57
2023/07/03 08:35:40;;;;;;;6.05;1.08;;;17.70;98.10;;;;;;5040213;28;20044;-55
2023/07/03 08:38:10;;;;;;;6.88;1.80;;;17.80;96.40;;;;;;5036954;28;20045;-57
2023/07/03 08:40:36;;;;;;;8.88;2.38;;;17.80;97.60;;;;;;5039864;28;20491;-59
2023/07/03 08:43:03;;;;;;;7.95;1.45;;;17.90;97.40;;;;;;5030470;28;20187;-59
2023/07/03 08:45:33;;;;;;;9.85;1.88;;;17.80;97.70;;;;;;5029023;28;20084;-57
2023/07/03 08:48:01;;;;;;;6.50;1.38;;;17.80;96.90;;;;;;5040305;28;20094;-56
2023/07/03 08:50:28;;;;;;;8.27;1.50;;;17.80;96.70;;;;;;5037030;28;20099;-57
2023/07/03 08:53:04;;;;;;;6.30;1.20;;;17.90;96.30;;;;;;5008597;28;20051;-58
2023/07/03 08:55:36;;;;;;;11.70;2.42;;;17.80;96.60;;;;;;5035160;28;20088;-57
2023/07/03 08:58:03;;;;;;;5.65;1.45;;;17.70;96.70;;;;;;5006865;28;20049;-57
2023/07/03 09:00:32;;;;;;;16.77;2.15;;;17.70;96.10;;;;;;5008239;28;20095;-57
2023/07/03 09:03:06;;;;;;;10.70;2.47;;;17.80;96.50;;;;;;5034536;28;20045;-57
2023/07/03 09:05:54;;;;;;;9.27;1.33;;;17.70;96.60;;;;;;5034986;28;20164;-56
2023/07/03 09:08:28;;;;;;;9.20;1.63;;;17.50;97.10;;;;;;5046890;28;20044;-56
2023/07/03 09:10:55;;;;;;;21.08;2.65;;;17.20;97.40;;;;;;5027253;28;20330;-58
2023/07/03 09:13:29;;;;;;;25.98;4.32;;;17.20;97.90;;;;;;5023108;28;20196;-53
2023/07/03 09:16:16;;;;;;;;;;;17.50;98.20;;;;;;5023073;28;20053;-56
2023/07/03 09:18:50;;;;;;;10.25;1.70;;;17.60;97.20;;;;;;5027793;28;19931;-57
2023/07/03 09:21:16;;;;;;;28.10;3.03;;;17.80;97.40;;;;;;5037826;28;20041;-56
2023/07/03 09:24:07;;;;;;;7.88;1.73;;;17.90;97.80;;;;;;5039025;28;20076;-58
2023/07/03 09:26:53;;;;;;;9.18;2.40;;;17.90;97.80;;;;;;5021914;28;20067;-57
2023/07/03 09:29:20;;;;;;;7.07;1.67;;;17.90;98.00;;;;;;5011234;28;20052;-56
2023/07/03 09:31:47;;;;;;;24.42;3.55;;;17.90;98.40;;;;;;5036862;28;20045;-58
2023/07/03 09:34:14;;;;;;;24.73;2.35;;;17.90;98.60;;;;;;5033815;28;20399;-56
2023/07/03 09:36:43;;;;;;;16.98;3.10;;;17.90;98.70;;;;;;5036734;28;20132;-57
2023/07/03 09:39:12;;;;;;;8.95;2.35;;;17.80;98.90;;;;;;5034343;28;20137;-57
2023/07/03 09:41:40;;;;;;;6.38;1.92;;;17.80;99.00;;;;;;5041727;28;20128;-55
2023/07/03 09:44:11;;;;;;;10.15;1.90;;;18.00;98.80;;;;;;5035443;28;20165;-57
2023/07/03 09:46:40;;;;;;;8.65;2.15;;;18.10;99.00;;;;;;5037242;28;20045;-54
2023/07/03 09:49:21;;;;;;;8.98;2.22;;;18.30;98.80;;;;;;5029295;28;20045;-59
2023/07/03 09:51:51;;;;;;;11.40;2.38;;;18.40;98.60;;;;;;5022915;28;20052;-55
2023/07/03 09:54:21;;;;;;;7.15;1.88;;;18.50;98.90;;;;;;5013677;28;20750;-56
2023/07/03 09:56:49;;;;;;;12.55;2.63;;;18.50;99.00;;;;;;4993926;28;20046;-57
2023/07/03 09:59:22;;;;;;;11.73;2.90;;;18.40;99.30;;;;;;4997030;28;20065;-57
2023/07/03 10:01:49;;;;;;;11.13;3.08;;;18.50;99.60;;;;;;5005607;28;20089;-60
2023/07/03 10:04:19;;;;;;;7.90;2.42;;;18.50;99.20;;;;;;5002109;28;20061;-56
2023/07/03 10:06:58;;;;;;;7.15;1.85;;;18.50;99.50;;;;;;5003593;28;20120;-59
2023/07/03 10:09:33;;;;;;;9.98;1.80;;;18.60;99.50;;;;;;4996304;28;20049;-57
2023/07/03 10:12:11;;;;;;;29.42;4.68;;;18.60;99.70;;;;;;4998942;28;20414;-58
2023/07/03 10:14:43;;;;;;;8.45;2.55;;;18.70;99.70;;;;;;4994711;28;20199;-56
2023/07/03 10:17:12;;;;;;;5.35;1.70;;;18.80;99.70;;;;;;5004025;28;20128;-54
2023/07/03 10:19:43;;;;;;;7.45;1.65;;;18.90;99.50;;;;;;4998235;28;20085;-52
2023/07/03 10:22:11;;;;;;;4.63;1.70;;;18.90;99.70;;;;;;4997773;28;20046;-58
2023/07/03 10:24:38;;;;;;;9.55;2.15;;;19.00;99.60;;;;;;4983867;28;20116;-54
2023/07/03 10:27:06;;;;;;;9.40;1.83;;;19.20;99.70;;;;;;4998993;28;20046;-56
2023/07/03 10:29:39;;;;;;;8.70;2.35;;;19.20;99.80;;;;;;4996683;28;20053;-57
2023/07/03 10:32:13;;;;;;;7.50;1.70;;;19.20;99.60;;;;;;4652188;28;10000155;-59
2023/07/03 10:35:04;;;;;;;40.50;7.05;;;19.20;99.20;;;;;;4995092;28;20053;-57
2023/07/03 10:37:38;;;;;;;13.75;2.70;;;19.10;99.80;;;;;;4999247;28;20065;-57
2023/07/03 10:40:12;;;;;;;6.07;1.90;;;19.00;99.90;;;;;;5003999;28;20050;-58
2023/07/03 10:42:45;;;;;;;8.52;3.17;;;19.00;99.90;;;;;;5001722;28;20496;-59
2023/07/03 10:45:12;;;;;;;10.93;2.70;;;19.00;99.90;;;;;;5019659;28;20060;-57
2023/07/03 10:47:52;;;;;;;13.23;3.05;;;19.30;99.90;;;;;;5002725;28;20069;-59
2023/07/03 10:50:20;;;;;;;12.02;2.85;;;19.50;98.90;;;;;;4996421;28;20116;-57
2023/07/03 10:53:21;;;;;;;8.40;1.80;;;19.50;98.70;;;;;;5006291;28;20054;-57
2023/07/03 10:56:09;;;;;;;20.25;3.92;;;19.50;98.40;;;;;;5047908;28;20072;-56
2023/07/03 10:58:48;;;;;;;10.20;2.33;;;19.50;98.90;;;;;;5030067;28;20046;-58
2023/07/03 11:01:39;;;;;;;23.92;3.60;;;19.50;99.00;;;;;;5024574;28;20511;-58
2023/07/03 11:04:31;;;;;;;6.47;2.03;;;19.60;98.70;;;;;;5019572;28;20049;-55
2023/07/03 11:07:10;;;;;;;13.43;2.00;;;19.40;98.60;;;;;;5042726;28;20069;-55
2023/07/03 11:09:48;;;;;;;10.85;2.33;;;19.20;98.90;;;;;;5029410;28;20056;-57
2023/07/03 11:12:46;;;;;;;9.98;2.33;;;19.10;98.70;;;;;;5022882;28;20523;-58
2023/07/03 11:15:22;;;;;;;9.30;2.20;;;18.90;98.80;;;;;;5016686;28;20042;-56
2023/07/03 11:18:28;;;;;;;8.13;2.42;;;19.20;99.40;;;;;;5038114;28;20124;-56
2023/07/03 11:21:32;;;;;;;5.30;2.10;;;19.20;98.90;;;;;;5029910;28;20118;-56
2023/07/03 11:24:16;;;;;;;;;;;19.50;98.80;;;;;;5038603;28;20512;-57
2023/07/03 11:27:21;;;;;;;18.90;5.32;;;19.70;98.10;;;;;;5020178;28;19948;-57
2023/07/03 11:29:53;;;;;;;7.25;1.95;;;19.80;98.20;;;;;;5011285;28;20523;-57
2023/07/03 11:32:20;;;;;;;15.50;2.63;;;20.00;98.10;;;;;;5031550;28;20052;-59
2023/07/03 11:34:48;;;;;;;6.93;2.22;;;20.00;98.30;;;;;;5030848;28;20051;-56
2023/07/03 11:37:39;;;;;;;11.43;2.35;;;19.90;98.10;;;;;;5020408;28;20049;-58
2023/07/03 11:40:47;;;;;;;10.52;2.00;;;19.70;97.70;;;;;;5034194;28;20209;-59
2023/07/03 11:43:18;;;;;;;15.93;3.00;;;19.60;98.10;;;;;;5037603;28;20053;-57
2023/07/03 11:46:00;;;;;;;9.02;2.63;;;19.80;98.30;;;;;;5035491;28;20053;-56
2023/07/03 11:48:39;;;;;;;7.97;2.38;;;19.90;98.10;;;;;;5027799;28;20060;-57
2023/07/03 11:51:07;;;;;;;11.00;2.25;;;20.00;98.00;;;;;;5037937;28;20041;-57
2023/07/03 11:53:44;;;;;;;7.78;2.20;;;20.20;98.00;;;;;;5015762;28;20138;-57
2023/07/03 11:56:29;;;;;;;13.75;3.00;;;20.20;96.70;;;;;;5041382;28;20128;-57
2023/07/03 11:59:04;;;;;;;10.15;2.83;;;20.30;97.40;;;;;;5037739;28;20049;-58
2023/07/03 12:01:31;;;;;;;10.50;2.88;;;20.40;96.60;;;;;;5007998;28;20320;-55
2023/07/03 12:03:59;;;;;;;8.18;2.72;;;20.40;97.20;;;;;;5034734;28;20049;-57
2023/07/03 12:06:41;;;;;;;8.30;2.08;;;20.50;96.60;;;;;;5016466;28;20053;-57
2023/07/03 12:09:22;;;;;;;8.30;2.28;;;20.70;95.70;;;;;;5038815;28;20053;-58
2023/07/03 12:12:02;;;;;;;5.57;1.88;;;20.70;95.20;;;;;;5034945;28;20075;-55
2023/07/03 12:14:56;;;;;;;8.75;2.97;;;20.70;95.40;;;;;;5035370;28;20403;-60
2023/07/03 12:17:30;;;;;;;9.40;2.45;;;20.70;95.00;;;;;;5040143;28;20053;-58
2023/07/03 12:20:10;;;;;;;6.20;2.42;;;20.70;94.90;;;;;;5017117;28;20715;-58
2023/07/03 12:22:47;;;;;;;12.10;2.58;;;20.90;94.40;;;;;;5037451;28;20119;-58
2023/07/03 12:25:28;;;;;;;8.13;2.15;;;21.00;94.60;;;;;;5023541;28;20585;-56
2023/07/03 12:28:07;;;;;;;8.68;2.55;;;21.20;93.90;;;;;;5035827;28;20046;-56
2023/07/03 12:30:34;;;;;;;16.63;2.22;;;21.20;94.30;;;;;;5041764;28;20989;-59
2023/07/03 12:33:02;;;;;;;10.13;1.90;;;21.10;93.70;;;;;;5039175;28;20088;-59
2023/07/03 12:35:37;;;;;;;10.85;2.60;;;21.00;93.50;;;;;;5042044;28;20089;-58
2023/07/03 12:38:09;;;;;;;7.03;2.20;;;21.10;93.00;;;;;;5018815;28;20571;-59
2023/07/03 12:40:45;;;;;;;5.95;2.00;;;21.20;93.60;;;;;;5024868;28;20492;-60
2023/07/03 12:43:17;;;;;;;8.82;2.70;;;21.30;93.40;;;;;;5035743;28;20049;-58
2023/07/03 12:45:53;;;;;;;7.13;2.55;;;21.50;93.40;;;;;;5043100;28;20045;-58
2023/07/03 12:48:22;;;;;;;5.47;2.05;;;21.60;93.20;;;;;;5035666;28;20045;-60
2023/07/03 12:50:52;;;;;;;5.60;2.58;;;21.50;92.90;;;;;;5025434;28;20037;-59
2023/07/03 12:53:21;;;;;;;10.95;2.08;;;21.60;92.90;;;;;;5039120;28;20053;-58
2023/07/03 12:55:51;;;;;;;8.95;2.10;;;21.60;91.20;;;;;;5020493;28;20041;-58